SBNT/NAT METAR and TAF weather

Enter ICAO airport designator
Station Type Date Time Source
SBNT METAR 2022/01/29 11:00 UTC NOAA

SBNT 291100Z 20005KT 8000 SCT020 OVC033 23/23 Q1013


Station Type Date Time Source
SBNT Decoded METAR 2022/01/29 11:00 UTC NOAA

Natal Aeroporto, Brazil (SBNT) 05-55S 035-15W 49M
Jan 29, 2022 - 06:00 AM EST / 2022.01.29 1100 UTC
Wind: from the SSW (200 degrees) at 6 MPH (5 KT):0
Visibility: 4 mile(s):0
Sky conditions: overcast
Temperature: 73 F (23 C)
Dew Point: 73 F (23 C)
Relative Humidity: 100%
Pressure (altimeter): 29.91 in. Hg (1013 hPa)
ob: SBNT 291100Z 20005KT 8000 SCT020 OVC033 23/23 Q1013
cycle: 11

Station Type Date Time Source
SBNT TAF 2022/01/29 12:03 UTC NOAA

TAF TAF SBNT 290910Z 2912/2924 15007KT 9999 BKN020 TX28/2916Z TN25/2924Z
TEMPO 2912/2915 07010KT 7000 SHRA SCT020 FEW025TCU
BECMG 2921/2923 10005KT FEW025
RMK PFV

Example: see airport list